sensor_id;sensor_type;location;lat;lon;timestamp;P1;durP1;ratioP1;P2;durP2;ratioP2
63012;SDS011;62113;45.624;11.700;2024-01-07T00:02:24;4.43;;;3.88;;
63012;SDS011;62113;45.624;11.700;2024-01-07T00:04:50;3.63;;;2.83;;
63012;SDS011;62113;45.624;11.700;2024-01-07T00:07:15;2.88;;;2.67;;
63012;SDS011;62113;45.624;11.700;2024-01-07T00:09:41;3.25;;;2.60;;
63012;SDS011;62113;45.624;11.700;2024-01-07T00:12:06;3.08;;;2.28;;
63012;SDS011;62113;45.624;11.700;2024-01-07T00:14:32;2.50;;;2.30;;
63012;SDS011;62113;45.624;11.700;2024-01-07T00:16:58;2.33;;;2.10;;
63012;SDS011;62113;45.624;11.700;2024-01-07T00:19:23;3.80;;;1.90;;
63012;SDS011;62113;45.624;11.700;2024-01-07T00:21:49;1.70;;;1.60;;
63012;SDS011;62113;45.624;11.700;2024-01-07T00:24:15;2.00;;;1.77;;
63012;SDS011;62113;45.624;11.700;2024-01-07T00:26:40;2.15;;;1.95;;
63012;SDS011;62113;45.624;11.700;2024-01-07T00:29:06;2.10;;;1.70;;
63012;SDS011;62113;45.624;11.700;2024-01-07T00:31:32;2.33;;;1.70;;
63012;SDS011;62113;45.624;11.700;2024-01-07T00:33:58;2.10;;;1.75;;
63012;SDS011;62113;45.624;11.700;2024-01-07T00:36:23;2.28;;;2.13;;
63012;SDS011;62113;45.624;11.700;2024-01-07T00:38:49;2.03;;;1.83;;
63012;SDS011;62113;45.624;11.700;2024-01-07T00:41:14;2.67;;;1.98;;
63012;SDS011;62113;45.624;11.700;2024-01-07T00:43:40;2.38;;;2.17;;
63012;SDS011;62113;45.624;11.700;2024-01-07T00:46:06;3.65;;;2.30;;
63012;SDS011;62113;45.624;11.700;2024-01-07T00:48:31;2.03;;;1.83;;
63012;SDS011;62113;45.624;11.700;2024-01-07T00:50:57;2.33;;;2.13;;
63012;SDS011;62113;45.624;11.700;2024-01-07T00:53:23;2.33;;;1.90;;
63012;SDS011;62113;45.624;11.700;2024-01-07T00:55:48;2.47;;;1.80;;
63012;SDS011;62113;45.624;11.700;2024-01-07T00:58:14;1.70;;;1.60;;
63012;SDS011;62113;45.624;11.700;2024-01-07T01:00:40;1.50;;;1.40;;
63012;SDS011;62113;45.624;11.700;2024-01-07T01:03:05;1.70;;;1.60;;
63012;SDS011;62113;45.624;11.700;2024-01-07T01:05:31;1.42;;;1.33;;
63012;SDS011;62113;45.624;11.700;2024-01-07T01:07:56;1.67;;;1.33;;
63012;SDS011;62113;45.624;11.700;2024-01-07T01:10:22;0.47;;;0.47;;
63012;SDS011;62113;45.624;11.700;2024-01-07T01:12:48;0.57;;;0.57;;
63012;SDS011;62113;45.624;11.700;2024-01-07T01:15:13;0.50;;;0.50;;
63012;SDS011;62113;45.624;11.700;2024-01-07T01:17:41;0.40;;;0.40;;
63012;SDS011;62113;45.624;11.700;2024-01-07T01:20:07;0.77;;;0.55;;
63012;SDS011;62113;45.624;11.700;2024-01-07T01:22:33;0.50;;;0.50;;
63012;SDS011;62113;45.624;11.700;2024-01-07T01:24:59;0.55;;;0.55;;
63012;SDS011;62113;45.624;11.700;2024-01-07T01:27:25;0.80;;;0.65;;
63012;SDS011;62113;45.624;11.700;2024-01-07T01:29:51;0.60;;;0.60;;
63012;SDS011;62113;45.624;11.700;2024-01-07T01:32:16;0.43;;;0.43;;
63012;SDS011;62113;45.624;11.700;2024-01-07T01:34:42;0.57;;;0.57;;
63012;SDS011;62113;45.624;11.700;2024-01-07T01:37:08;0.60;;;0.60;;
63012;SDS011;62113;45.624;11.700;2024-01-07T01:39:34;0.47;;;0.47;;
63012;SDS011;62113;45.624;11.700;2024-01-07T01:42:00;0.55;;;0.55;;
63012;SDS011;62113;45.624;11.700;2024-01-07T01:44:25;0.70;;;0.63;;
63012;SDS011;62113;45.624;11.700;2024-01-07T01:46:54;0.95;;;0.50;;
63012;SDS011;62113;45.624;11.700;2024-01-07T01:51:46;0.70;;;0.70;;
63012;SDS011;62113;45.624;11.700;2024-01-07T01:54:12;3.58;;;0.68;;
63012;SDS011;62113;45.624;11.700;2024-01-07T01:56:38;0.50;;;0.50;;
63012;SDS011;62113;45.624;11.700;2024-01-07T01:59:04;0.50;;;0.50;;
63012;SDS011;62113;45.624;11.700;2024-01-07T02:01:30;0.22;;;0.22;;
63012;SDS011;62113;45.624;11.700;2024-01-07T02:03:56;0.85;;;0.60;;
63012;SDS011;62113;45.624;11.700;2024-01-07T02:06:22;0.40;;;0.40;;
63012;SDS011;62113;45.624;11.700;2024-01-07T02:08:49;0.20;;;0.20;;
63012;SDS011;62113;45.624;11.700;2024-01-07T02:11:16;0.30;;;0.30;;
63012;SDS011;62113;45.624;11.700;2024-01-07T02:13:45;0.45;;;0.45;;
63012;SDS011;62113;45.624;11.700;2024-01-07T02:16:11;0.40;;;0.40;;
63012;SDS011;62113;45.624;11.700;2024-01-07T02:18:37;0.43;;;0.43;;
63012;SDS011;62113;45.624;11.700;2024-01-07T02:21:06;1.27;;;0.30;;
63012;SDS011;62113;45.624;11.700;2024-01-07T02:23:32;0.63;;;0.63;;
63012;SDS011;62113;45.624;11.700;2024-01-07T02:25:58;1.02;;;0.80;;
63012;SDS011;62113;45.624;11.700;2024-01-07T02:28:24;0.70;;;0.70;;
63012;SDS011;62113;45.624;11.700;2024-01-07T02:30:49;0.70;;;0.50;;
63012;SDS011;62113;45.624;11.700;2024-01-07T02:33:15;0.40;;;0.40;;
63012;SDS011;62113;45.624;11.700;2024-01-07T02:35:40;0.20;;;0.20;;
63012;SDS011;62113;45.624;11.700;2024-01-07T02:38:06;0.47;;;0.47;;
63012;SDS011;62113;45.624;11.700;2024-01-07T02:40:32;0.40;;;0.40;;
63012;SDS011;62113;45.624;11.700;2024-01-07T02:42:57;2.33;;;0.55;;
63012;SDS011;62113;45.624;11.700;2024-01-07T02:45:23;0.50;;;0.50;;
63012;SDS011;62113;45.624;11.700;2024-01-07T02:47:49;0.38;;;0.30;;
63012;SDS011;62113;45.624;11.700;2024-01-07T02:50:15;0.40;;;0.40;;
63012;SDS011;62113;45.624;11.700;2024-01-07T02:52:43;0.20;;;0.20;;
63012;SDS011;62113;45.624;11.700;2024-01-07T02:55:09;0.98;;;0.30;;
63012;SDS011;62113;45.624;11.700;2024-01-07T02:57:34;0.10;;;0.10;;
63012;SDS011;62113;45.624;11.700;2024-01-07T03:00:00;1.65;;;0.32;;
63012;SDS011;62113;45.624;11.700;2024-01-07T03:02:27;0.13;;;0.13;;
63012;SDS011;62113;45.624;11.700;2024-01-07T03:04:53;0.30;;;0.30;;
63012;SDS011;62113;45.624;11.700;2024-01-07T03:07:18;0.40;;;0.40;;
63012;SDS011;62113;45.624;11.700;2024-01-07T03:09:44;0.80;;;0.50;;
63012;SDS011;62113;45.624;11.700;2024-01-07T03:12:10;0.30;;;0.30;;
63012;SDS011;62113;45.624;11.700;2024-01-07T03:14:35;0.50;;;0.50;;
63012;SDS011;62113;45.624;11.700;2024-01-07T03:17:01;0.32;;;0.32;;
63012;SDS011;62113;45.624;11.700;2024-01-07T03:19:26;0.75;;;0.60;;
63012;SDS011;62113;45.624;11.700;2024-01-07T03:21:52;5.22;;;0.57;;
63012;SDS011;62113;45.624;11.700;2024-01-07T03:24:17;0.47;;;0.47;;
63012;SDS011;62113;45.624;11.700;2024-01-07T03:26:43;1.05;;;0.73;;
63012;SDS011;62113;45.624;11.700;2024-01-07T03:29:08;0.70;;;0.68;;
63012;SDS011;62113;45.624;11.700;2024-01-07T03:31:34;0.77;;;0.70;;
63012;SDS011;62113;45.624;11.700;2024-01-07T03:34:00;0.82;;;0.77;;
63012;SDS011;62113;45.624;11.700;2024-01-07T03:36:25;0.70;;;0.70;;
63012;SDS011;62113;45.624;11.700;2024-01-07T03:38:51;1.00;;;0.98;;
63012;SDS011;62113;45.624;11.700;2024-01-07T03:41:18;0.85;;;0.85;;
63012;SDS011;62113;45.624;11.700;2024-01-07T03:43:45;1.10;;;1.00;;
63012;SDS011;62113;45.624;11.700;2024-01-07T03:48:37;0.80;;;0.80;;
63012;SDS011;62113;45.624;11.700;2024-01-07T03:51:02;0.82;;;0.82;;
63012;SDS011;62113;45.624;11.700;2024-01-07T03:53:28;1.05;;;1.00;;
63012;SDS011;62113;45.624;11.700;2024-01-07T03:55:53;0.82;;;0.82;;
63012;SDS011;62113;45.624;11.700;2024-01-07T03:58:19;0.60;;;0.60;;
63012;SDS011;62113;45.624;11.700;2024-01-07T04:00:45;0.80;;;0.80;;
63012;SDS011;62113;45.624;11.700;2024-01-07T04:03:10;0.90;;;0.90;;
63012;SDS011;62113;45.624;11.700;2024-01-07T04:05:36;1.23;;;1.10;;
63012;SDS011;62113;45.624;11.700;2024-01-07T04:08:03;0.93;;;0.93;;
63012;SDS011;62113;45.624;11.700;2024-01-07T04:10:28;1.15;;;1.05;;
63012;SDS011;62113;45.624;11.700;2024-01-07T04:12:54;1.45;;;1.35;;
63012;SDS011;62113;45.624;11.700;2024-01-07T04:15:20;1.73;;;1.45;;
63012;SDS011;62113;45.624;11.700;2024-01-07T04:17:46;0.93;;;0.90;;
63012;SDS011;62113;45.624;11.700;2024-01-07T04:20:12;7.20;;;1.13;;
63012;SDS011;62113;45.624;11.700;2024-01-07T04:22:38;1.00;;;1.00;;
63012;SDS011;62113;45.624;11.700;2024-01-07T04:25:04;1.00;;;1.00;;
63012;SDS011;62113;45.624;11.700;2024-01-07T04:27:33;0.98;;;0.98;;
63012;SDS011;62113;45.624;11.700;2024-01-07T04:30:00;0.80;;;0.80;;
63012;SDS011;62113;45.624;11.700;2024-01-07T04:32:26;1.10;;;1.10;;
63012;SDS011;62113;45.624;11.700;2024-01-07T04:34:51;0.98;;;0.90;;
63012;SDS011;62113;45.624;11.700;2024-01-07T04:37:17;1.08;;;1.08;;
63012;SDS011;62113;45.624;11.700;2024-01-07T04:39:42;1.42;;;1.33;;
63012;SDS011;62113;45.624;11.700;2024-01-07T04:42:08;0.95;;;0.85;;
63012;SDS011;62113;45.624;11.700;2024-01-07T04:44:34;1.00;;;1.00;;
63012;SDS011;62113;45.624;11.700;2024-01-07T04:46:59;0.98;;;0.98;;
63012;SDS011;62113;45.624;11.700;2024-01-07T04:49:25;1.10;;;1.10;;
63012;SDS011;62113;45.624;11.700;2024-01-07T04:51:51;1.10;;;1.10;;
63012;SDS011;62113;45.624;11.700;2024-01-07T04:54:16;0.88;;;0.88;;
63012;SDS011;62113;45.624;11.700;2024-01-07T04:56:43;1.05;;;0.95;;
63012;SDS011;62113;45.624;11.700;2024-01-07T04:59:09;1.02;;;1.02;;
63012;SDS011;62113;45.624;11.700;2024-01-07T05:01:35;0.93;;;0.93;;
63012;SDS011;62113;45.624;11.700;2024-01-07T05:04:01;1.02;;;1.02;;
63012;SDS011;62113;45.624;11.700;2024-01-07T05:06:27;1.98;;;1.13;;
63012;SDS011;62113;45.624;11.700;2024-01-07T05:08:53;1.10;;;1.08;;
63012;SDS011;62113;45.624;11.700;2024-01-07T05:11:18;1.52;;;1.40;;
63012;SDS011;62113;45.624;11.700;2024-01-07T05:13:44;1.60;;;1.50;;
63012;SDS011;62113;45.624;11.700;2024-01-07T05:16:17;1.27;;;1.20;;
63012;SDS011;62113;45.624;11.700;2024-01-07T05:18:46;1.10;;;1.10;;
63012;SDS011;62113;45.624;11.700;2024-01-07T05:21:14;1.40;;;1.30;;
63012;SDS011;62113;45.624;11.700;2024-01-07T05:23:41;1.20;;;1.20;;
63012;SDS011;62113;45.624;11.700;2024-01-07T05:26:06;1.20;;;1.20;;
63012;SDS011;62113;45.624;11.700;2024-01-07T05:28:32;1.30;;;1.20;;
63012;SDS011;62113;45.624;11.700;2024-01-07T05:30:58;1.30;;;1.20;;
63012;SDS011;62113;45.624;11.700;2024-01-07T05:33:23;5.68;;;1.83;;
63012;SDS011;62113;45.624;11.700;2024-01-07T05:35:49;2.10;;;1.88;;
63012;SDS011;62113;45.624;11.700;2024-01-07T05:38:14;1.70;;;1.60;;
63012;SDS011;62113;45.624;11.700;2024-01-07T05:40:40;1.30;;;1.30;;
63012;SDS011;62113;45.624;11.700;2024-01-07T05:43:05;3.22;;;1.85;;
63012;SDS011;62113;45.624;11.700;2024-01-07T05:45:31;3.28;;;2.45;;
63012;SDS011;62113;45.624;11.700;2024-01-07T05:47:57;8.05;;;4.32;;
63012;SDS011;62113;45.624;11.700;2024-01-07T05:50:22;24.75;;;10.45;;
63012;SDS011;62113;45.624;11.700;2024-01-07T05:52:48;32.97;;;13.38;;
63012;SDS011;62113;45.624;11.700;2024-01-07T05:55:13;28.05;;;11.43;;
63012;SDS011;62113;45.624;11.700;2024-01-07T05:57:39;18.08;;;8.20;;
63012;SDS011;62113;45.624;11.700;2024-01-07T06:00:05;7.93;;;4.93;;
63012;SDS011;62113;45.624;11.700;2024-01-07T06:02:31;8.10;;;4.47;;
63012;SDS011;62113;45.624;11.700;2024-01-07T06:04:56;4.90;;;3.85;;
63012;SDS011;62113;45.624;11.700;2024-01-07T06:07:22;2.80;;;2.50;;
63012;SDS011;62113;45.624;11.700;2024-01-07T06:09:47;2.30;;;2.10;;
63012;SDS011;62113;45.624;11.700;2024-01-07T06:12:13;2.50;;;1.92;;
63012;SDS011;62113;45.624;11.700;2024-01-07T06:14:39;1.65;;;1.55;;
63012;SDS011;62113;45.624;11.700;2024-01-07T06:17:04;1.70;;;1.60;;
63012;SDS011;62113;45.624;11.700;2024-01-07T06:19:30;1.65;;;1.55;;
63012;SDS011;62113;45.624;11.700;2024-01-07T06:21:56;1.42;;;1.33;;
63012;SDS011;62113;45.624;11.700;2024-01-07T06:24:21;1.73;;;1.20;;
63012;SDS011;62113;45.624;11.700;2024-01-07T06:26:47;5.00;;;3.78;;
63012;SDS011;62113;45.624;11.700;2024-01-07T06:29:12;4.78;;;3.85;;
63012;SDS011;62113;45.624;11.700;2024-01-07T06:31:44;2.03;;;1.73;;
63012;SDS011;62113;45.624;11.700;2024-01-07T06:34:10;1.98;;;1.88;;
63012;SDS011;62113;45.624;11.700;2024-01-07T06:36:38;1.80;;;1.70;;
63012;SDS011;62113;45.624;11.700;2024-01-07T06:39:05;1.77;;;1.40;;
63012;SDS011;62113;45.624;11.700;2024-01-07T06:41:31;1.83;;;1.63;;
63012;SDS011;62113;45.624;11.700;2024-01-07T06:43:56;1.60;;;1.50;;
63012;SDS011;62113;45.624;11.700;2024-01-07T06:46:22;2.38;;;1.85;;
63012;SDS011;62113;45.624;11.700;2024-01-07T06:48:49;3.20;;;2.20;;
63012;SDS011;62113;45.624;11.700;2024-01-07T06:51:14;1.85;;;1.58;;
63012;SDS011;62113;45.624;11.700;2024-01-07T06:53:40;1.40;;;1.30;;
63012;SDS011;62113;45.624;11.700;2024-01-07T06:56:06;2.50;;;1.20;;
63012;SDS011;62113;45.624;11.700;2024-01-07T06:58:31;2.50;;;1.15;;
63012;SDS011;62113;45.624;11.700;2024-01-07T07:00:57;1.20;;;1.20;;
63012;SDS011;62113;45.624;11.700;2024-01-07T07:03:23;1.30;;;1.20;;
63012;SDS011;62113;45.624;11.700;2024-01-07T07:05:48;1.30;;;1.13;;
63012;SDS011;62113;45.624;11.700;2024-01-07T07:08:14;5.15;;;1.42;;
63012;SDS011;62113;45.624;11.700;2024-01-07T07:10:40;2.40;;;1.73;;
63012;SDS011;62113;45.624;11.700;2024-01-07T07:13:05;3.65;;;2.53;;
63012;SDS011;62113;45.624;11.700;2024-01-07T07:15:31;1.83;;;1.73;;
63012;SDS011;62113;45.624;11.700;2024-01-07T07:17:57;1.80;;;1.70;;
63012;SDS011;62113;45.624;11.700;2024-01-07T07:20:22;1.70;;;1.60;;
63012;SDS011;62113;45.624;11.700;2024-01-07T07:22:48;2.92;;;2.25;;
63012;SDS011;62113;45.624;11.700;2024-01-07T07:25:13;9.25;;;2.05;;
63012;SDS011;62113;45.624;11.700;2024-01-07T07:27:39;2.30;;;2.10;;
63012;SDS011;62113;45.624;11.700;2024-01-07T07:30:05;2.25;;;1.95;;
63012;SDS011;62113;45.624;11.700;2024-01-07T07:32:31;1.60;;;1.50;;
63012;SDS011;62113;45.624;11.700;2024-01-07T07:34:57;5.13;;;1.80;;
63012;SDS011;62113;45.624;11.700;2024-01-07T07:37:22;1.67;;;1.58;;
63012;SDS011;62113;45.624;11.700;2024-01-07T07:39:48;2.28;;;2.08;;
63012;SDS011;62113;45.624;11.700;2024-01-07T07:42:14;1.50;;;1.48;;
63012;SDS011;62113;45.624;11.700;2024-01-07T07:44:41;2.03;;;1.83;;
63012;SDS011;62113;45.624;11.700;2024-01-07T07:47:06;1.95;;;1.80;;
63012;SDS011;62113;45.624;11.700;2024-01-07T07:49:33;2.10;;;1.90;;
63012;SDS011;62113;45.624;11.700;2024-01-07T07:52:00;1.70;;;1.60;;
63012;SDS011;62113;45.624;11.700;2024-01-07T07:54:26;1.92;;;1.55;;
63012;SDS011;62113;45.624;11.700;2024-01-07T07:56:51;2.00;;;1.83;;
63012;SDS011;62113;45.624;11.700;2024-01-07T07:59:17;1.55;;;1.48;;
63012;SDS011;62113;45.624;11.700;2024-01-07T08:01:43;1.63;;;1.52;;
63012;SDS011;62113;45.624;11.700;2024-01-07T08:04:10;1.63;;;1.30;;
63012;SDS011;62113;45.624;11.700;2024-01-07T08:06:36;1.58;;;1.48;;
63012;SDS011;62113;45.624;11.700;2024-01-07T08:09:01;1.60;;;1.50;;
63012;SDS011;62113;45.624;11.700;2024-01-07T08:11:27;4.82;;;2.17;;
63012;SDS011;62113;45.624;11.700;2024-01-07T08:13:54;1.80;;;1.70;;
63012;SDS011;62113;45.624;11.700;2024-01-07T08:16:20;1.65;;;1.55;;
63012;SDS011;62113;45.624;11.700;2024-01-07T08:18:46;1.70;;;1.60;;
63012;SDS011;62113;45.624;11.700;2024-01-07T08:21:11;1.50;;;1.40;;
63012;SDS011;62113;45.624;11.700;2024-01-07T08:23:37;2.42;;;1.83;;
63012;SDS011;62113;45.624;11.700;2024-01-07T08:26:03;8.65;;;2.20;;
63012;SDS011;62113;45.624;11.700;2024-01-07T08:28:28;2.47;;;2.28;;
63012;SDS011;62113;45.624;11.700;2024-01-07T08:30:54;10.52;;;2.55;;
63012;SDS011;62113;45.624;11.700;2024-01-07T08:33:21;3.58;;;2.38;;
63012;SDS011;62113;45.624;11.700;2024-01-07T08:35:46;3.75;;;1.90;;
63012;SDS011;62113;45.624;11.700;2024-01-07T08:38:12;2.08;;;1.88;;
63012;SDS011;62113;45.624;11.700;2024-01-07T08:40:38;2.00;;;1.67;;
63012;SDS011;62113;45.624;11.700;2024-01-07T08:43:04;2.40;;;1.70;;
63012;SDS011;62113;45.624;11.700;2024-01-07T08:45:30;1.35;;;1.25;;
63012;SDS011;62113;45.624;11.700;2024-01-07T08:47:55;1.63;;;1.52;;
63012;SDS011;62113;45.624;11.700;2024-01-07T08:50:21;1.27;;;1.27;;
63012;SDS011;62113;45.624;11.700;2024-01-07T08:52:47;1.10;;;1.10;;
63012;SDS011;62113;45.624;11.700;2024-01-07T08:55:12;1.38;;;1.38;;
63012;SDS011;62113;45.624;11.700;2024-01-07T08:57:38;1.60;;;1.50;;
63012;SDS011;62113;45.624;11.700;2024-01-07T09:00:04;1.80;;;1.70;;
63012;SDS011;62113;45.624;11.700;2024-01-07T09:02:32;2.88;;;1.60;;
63012;SDS011;62113;45.624;11.700;2024-01-07T09:04:58;1.60;;;1.50;;
63012;SDS011;62113;45.624;11.700;2024-01-07T09:07:24;1.85;;;1.40;;
63012;SDS011;62113;45.624;11.700;2024-01-07T09:09:49;5.22;;;1.58;;
63012;SDS011;62113;45.624;11.700;2024-01-07T09:12:16;1.65;;;1.55;;
63012;SDS011;62113;45.624;11.700;2024-01-07T09:14:42;1.95;;;1.80;;
63012;SDS011;62113;45.624;11.700;2024-01-07T09:17:07;2.92;;;1.42;;
63012;SDS011;62113;45.624;11.700;2024-01-07T09:19:33;1.50;;;1.40;;
63012;SDS011;62113;45.624;11.700;2024-01-07T09:21:59;1.75;;;1.60;;
63012;SDS011;62113;45.624;11.700;2024-01-07T09:24:24;5.22;;;2.60;;
63012;SDS011;62113;45.624;11.700;2024-01-07T09:26:50;3.03;;;2.20;;
63012;SDS011;62113;45.624;11.700;2024-01-07T09:29:16;3.58;;;2.05;;
63012;SDS011;62113;45.624;11.700;2024-01-07T09:31:42;2.03;;;1.90;;
63012;SDS011;62113;45.624;11.700;2024-01-07T09:34:07;3.85;;;1.85;;
63012;SDS011;62113;45.624;11.700;2024-01-07T09:36:33;2.72;;;1.98;;
63012;SDS011;62113;45.624;11.700;2024-01-07T09:41:26;1.90;;;1.80;;
63012;SDS011;62113;45.624;11.700;2024-01-07T09:43:52;2.25;;;2.08;;
63012;SDS011;62113;45.624;11.700;2024-01-07T09:46:18;1.85;;;1.75;;
63012;SDS011;62113;45.624;11.700;2024-01-07T09:48:44;2.03;;;1.90;;
63012;SDS011;62113;45.624;11.700;2024-01-07T09:51:10;2.45;;;1.73;;
63012;SDS011;62113;45.624;11.700;2024-01-07T09:53:38;1.90;;;1.80;;
63012;SDS011;62113;45.624;11.700;2024-01-07T09:56:25;2.25;;;1.85;;
63012;SDS011;62113;45.624;11.700;2024-01-07T09:58:51;6.25;;;3.65;;
63012;SDS011;62113;45.624;11.700;2024-01-07T10:01:20;2.05;;;1.83;;
63012;SDS011;62113;45.624;11.700;2024-01-07T10:03:45;2.30;;;1.70;;
63012;SDS011;62113;45.624;11.700;2024-01-07T10:06:11;2.88;;;1.95;;
63012;SDS011;62113;45.624;11.700;2024-01-07T10:08:37;2.58;;;1.88;;
63012;SDS011;62113;45.624;11.700;2024-01-07T10:11:03;3.30;;;2.33;;
63012;SDS011;62113;45.624;11.700;2024-01-07T10:13:30;4.85;;;1.73;;
63012;SDS011;62113;45.624;11.700;2024-01-07T10:15:56;3.17;;;2.13;;
63012;SDS011;62113;45.624;11.700;2024-01-07T10:18:21;2.40;;;2.20;;
63012;SDS011;62113;45.624;11.700;2024-01-07T10:20:47;3.22;;;2.20;;
63012;SDS011;62113;45.624;11.700;2024-01-07T10:23:18;1.98;;;1.73;;
63012;SDS011;62113;45.624;11.700;2024-01-07T10:25:44;3.40;;;1.85;;
63012;SDS011;62113;45.624;11.700;2024-01-07T10:28:10;3.45;;;1.75;;
63012;SDS011;62113;45.624;11.700;2024-01-07T10:30:39;1.77;;;1.67;;
63012;SDS011;62113;45.624;11.700;2024-01-07T10:33:05;2.80;;;1.83;;
63012;SDS011;62113;45.624;11.700;2024-01-07T10:35:33;1.60;;;1.50;;
63012;SDS011;62113;45.624;11.700;2024-01-07T10:38:00;2.53;;;1.58;;
63012;SDS011;62113;45.624;11.700;2024-01-07T10:40:26;1.38;;;1.38;;
63012;SDS011;62113;45.624;11.700;2024-01-07T10:42:54;1.98;;;1.48;;
63012;SDS011;62113;45.624;11.700;2024-01-07T10:45:21;1.60;;;1.50;;
63012;SDS011;62113;45.624;11.700;2024-01-07T10:47:50;2.40;;;1.80;;
63012;SDS011;62113;45.624;11.700;2024-01-07T10:50:19;3.00;;;2.70;;
63012;SDS011;62113;45.624;11.700;2024-01-07T10:52:49;5.97;;;3.90;;
63012;SDS011;62113;45.624;11.700;2024-01-07T10:55:19;13.40;;;4.88;;
63012;SDS011;62113;45.624;11.700;2024-01-07T10:57:47;10.32;;;5.40;;
63012;SDS011;62113;45.624;11.700;2024-01-07T11:00:15;16.50;;;7.40;;
63012;SDS011;62113;45.624;11.700;2024-01-07T11:05:39;13.18;;;4.72;;
63012;SDS011;62113;45.624;11.700;2024-01-07T11:10:50;6.18;;;2.80;;
63012;SDS011;62113;45.624;11.700;2024-01-07T11:16:01;2.72;;;2.28;;
63012;SDS011;62113;45.624;11.700;2024-01-07T11:21:00;7.90;;;3.35;;
63012;SDS011;62113;45.624;11.700;2024-01-07T11:25:54;6.95;;;4.15;;
63012;SDS011;62113;45.624;11.700;2024-01-07T11:28:28;17.10;;;6.03;;
63012;SDS011;62113;45.624;11.700;2024-01-07T11:31:17;9.53;;;4.87;;
63012;SDS011;62113;45.624;11.700;2024-01-07T11:33:48;7.50;;;3.20;;
63012;SDS011;62113;45.624;11.700;2024-01-07T11:36:14;4.43;;;2.95;;
63012;SDS011;62113;45.624;11.700;2024-01-07T11:38:41;3.03;;;1.98;;
63012;SDS011;62113;45.624;11.700;2024-01-07T11:41:12;2.55;;;2.22;;
63012;SDS011;62113;45.624;11.700;2024-01-07T11:43:44;3.10;;;2.80;;
63012;SDS011;62113;45.624;11.700;2024-01-07T11:46:21;3.33;;;2.80;;
63012;SDS011;62113;45.624;11.700;2024-01-07T11:48:47;5.35;;;3.22;;
63012;SDS011;62113;45.624;11.700;2024-01-07T11:51:15;4.22;;;2.83;;
63012;SDS011;62113;45.624;11.700;2024-01-07T11:53:41;7.50;;;3.55;;
63012;SDS011;62113;45.624;11.700;2024-01-07T11:56:08;6.22;;;3.50;;
63012;SDS011;62113;45.624;11.700;2024-01-07T11:58:34;5.82;;;3.38;;
63012;SDS011;62113;45.624;11.700;2024-01-07T12:00:59;4.55;;;2.80;;
63012;SDS011;62113;45.624;11.700;2024-01-07T12:03:26;18.77;;;9.05;;
63012;SDS011;62113;45.624;11.700;2024-01-07T12:05:51;26.83;;;13.27;;
63012;SDS011;62113;45.624;11.700;2024-01-07T12:08:17;7.78;;;5.10;;
63012;SDS011;62113;45.624;11.700;2024-01-07T12:10:43;4.20;;;3.53;;
63012;SDS011;62113;45.624;11.700;2024-01-07T12:13:10;3.10;;;2.80;;
63012;SDS011;62113;45.624;11.700;2024-01-07T12:15:37;3.13;;;2.40;;
63012;SDS011;62113;45.624;11.700;2024-01-07T12:18:04;2.57;;;2.37;;
63012;SDS011;62113;45.624;11.700;2024-01-07T12:20:29;2.45;;;2.25;;
63012;SDS011;62113;45.624;11.700;2024-01-07T12:23:07;2.47;;;2.28;;
63012;SDS011;62113;45.624;11.700;2024-01-07T12:25:34;2.60;;;2.40;;
63012;SDS011;62113;45.624;11.700;2024-01-07T12:28:00;10.80;;;5.65;;
63012;SDS011;62113;45.624;11.700;2024-01-07T12:30:26;19.23;;;11.07;;
63012;SDS011;62113;45.624;11.700;2024-01-07T12:32:52;19.83;;;11.18;;
63012;SDS011;62113;45.624;11.700;2024-01-07T12:35:18;18.30;;;9.98;;
63012;SDS011;62113;45.624;11.700;2024-01-07T12:37:44;18.35;;;10.68;;
63012;SDS011;62113;45.624;11.700;2024-01-07T12:40:10;14.07;;;8.55;;
63012;SDS011;62113;45.624;11.700;2024-01-07T12:42:37;15.10;;;9.00;;
63012;SDS011;62113;45.624;11.700;2024-01-07T12:45:06;16.48;;;8.40;;
63012;SDS011;62113;45.624;11.700;2024-01-07T12:47:32;12.02;;;7.22;;
63012;SDS011;62113;45.624;11.700;2024-01-07T12:49:58;12.45;;;7.28;;
63012;SDS011;62113;45.624;11.700;2024-01-07T12:52:24;10.07;;;6.80;;
63012;SDS011;62113;45.624;11.700;2024-01-07T12:54:50;8.93;;;6.00;;
63012;SDS011;62113;45.624;11.700;2024-01-07T12:57:17;24.65;;;13.50;;
63012;SDS011;62113;45.624;11.700;2024-01-07T12:59:42;29.60;;;13.05;;
63012;SDS011;62113;45.624;11.700;2024-01-07T13:02:08;25.30;;;13.93;;
63012;SDS011;62113;45.624;11.700;2024-01-07T13:04:34;17.10;;;11.00;;
63012;SDS011;62113;45.624;11.700;2024-01-07T13:06:59;18.77;;;9.40;;
63012;SDS011;62113;45.624;11.700;2024-01-07T13:09:25;19.92;;;10.70;;
63012;SDS011;62113;45.624;11.700;2024-01-07T13:11:50;33.67;;;19.58;;
63012;SDS011;62113;45.624;11.700;2024-01-07T13:14:16;26.88;;;17.70;;
63012;SDS011;62113;45.624;11.700;2024-01-07T13:16:42;16.50;;;11.25;;
63012;SDS011;62113;45.624;11.700;2024-01-07T13:19:08;15.68;;;10.85;;
63012;SDS011;62113;45.624;11.700;2024-01-07T13:21:35;19.40;;;11.10;;
63012;SDS011;62113;45.624;11.700;2024-01-07T13:24:03;18.38;;;12.57;;
63012;SDS011;62113;45.624;11.700;2024-01-07T13:26:29;15.02;;;10.68;;
63012;SDS011;62113;45.624;11.700;2024-01-07T13:28:55;14.77;;;10.80;;
63012;SDS011;62113;45.624;11.700;2024-01-07T13:31:20;13.45;;;10.13;;
63012;SDS011;62113;45.624;11.700;2024-01-07T13:33:46;13.82;;;9.27;;
63012;SDS011;62113;45.624;11.700;2024-01-07T13:36:12;16.17;;;9.63;;
63012;SDS011;62113;45.624;11.700;2024-01-07T13:38:38;12.37;;;9.63;;
63012;SDS011;62113;45.624;11.700;2024-01-07T13:41:06;15.63;;;10.15;;
63012;SDS011;62113;45.624;11.700;2024-01-07T13:43:35;15.23;;;10.23;;
63012;SDS011;62113;45.624;11.700;2024-01-07T13:46:03;16.17;;;10.85;;
63012;SDS011;62113;45.624;11.700;2024-01-07T13:48:29;14.53;;;9.93;;
63012;SDS011;62113;45.624;11.700;2024-01-07T13:50:54;15.75;;;10.15;;
63012;SDS011;62113;45.624;11.700;2024-01-07T13:53:20;34.17;;;16.02;;
63012;SDS011;62113;45.624;11.700;2024-01-07T13:55:46;23.33;;;11.73;;
63012;SDS011;62113;45.624;11.700;2024-01-07T13:58:12;17.42;;;10.02;;
63012;SDS011;62113;45.624;11.700;2024-01-07T14:00:37;17.42;;;9.55;;
63012;SDS011;62113;45.624;11.700;2024-01-07T14:03:03;10.27;;;6.63;;
63012;SDS011;62113;45.624;11.700;2024-01-07T14:05:29;12.10;;;8.33;;
63012;SDS011;62113;45.624;11.700;2024-01-07T14:07:55;11.82;;;6.70;;
63012;SDS011;62113;45.624;11.700;2024-01-07T14:10:20;11.20;;;6.93;;
63012;SDS011;62113;45.624;11.700;2024-01-07T14:12:46;13.55;;;6.60;;
63012;SDS011;62113;45.624;11.700;2024-01-07T14:15:12;12.07;;;6.77;;
63012;SDS011;62113;45.624;11.700;2024-01-07T14:17:38;10.57;;;7.53;;
63012;SDS011;62113;45.624;11.700;2024-01-07T14:20:05;9.77;;;5.95;;
63012;SDS011;62113;45.624;11.700;2024-01-07T14:24:56;9.33;;;6.47;;
63012;SDS011;62113;45.624;11.700;2024-01-07T14:27:22;8.32;;;6.97;;
63012;SDS011;62113;45.624;11.700;2024-01-07T14:29:48;10.35;;;7.47;;
63012;SDS011;62113;45.624;11.700;2024-01-07T14:32:13;10.05;;;6.85;;
63012;SDS011;62113;45.624;11.700;2024-01-07T14:34:39;11.80;;;6.80;;
63012;SDS011;62113;45.624;11.700;2024-01-07T14:37:14;13.13;;;7.30;;
63012;SDS011;62113;45.624;11.700;2024-01-07T14:39:40;10.70;;;7.53;;
63012;SDS011;62113;45.624;11.700;2024-01-07T14:42:05;9.52;;;6.38;;
63012;SDS011;62113;45.624;11.700;2024-01-07T14:44:31;12.98;;;5.72;;
63012;SDS011;62113;45.624;11.700;2024-01-07T14:46:57;9.43;;;4.00;;
63012;SDS011;62113;45.624;11.700;2024-01-07T14:49:22;14.77;;;5.07;;